createdAt,value
2019-05-05T00:01:51.648Z,7.24
2019-05-05T00:03:34.507Z,7.24
2019-05-05T00:05:24.642Z,7.18
2019-05-05T00:07:01.280Z,7.16
2019-05-05T00:08:36.804Z,7.14
2019-05-05T00:10:15.111Z,7.13
2019-05-05T00:11:54.639Z,7.14
2019-05-05T00:13:34.699Z,7.14
2019-05-05T00:15:19.144Z,7.12
2019-05-05T00:17:14.464Z,7.13
2019-05-05T00:18:50.792Z,7.11
2019-05-05T00:20:26.304Z,7.07
2019-05-05T00:22:01.812Z,7.08
2019-05-05T00:23:37.320Z,7.08
2019-05-05T00:25:14.311Z,7.08
2019-05-05T00:26:49.935Z,7.08
2019-05-05T00:28:25.487Z,7.08
2019-05-05T00:30:01.256Z,7.07
2019-05-05T00:31:36.750Z,7.07
2019-05-05T00:33:14.360Z,7.07
2019-05-05T00:34:49.473Z,7.06
2019-05-05T00:36:24.967Z,7.05
2019-05-05T00:38:01.088Z,7.05
2019-05-05T00:39:36.599Z,7.05
2019-05-05T00:41:12.199Z,7.03
2019-05-05T00:42:47.710Z,7.03
2019-05-05T00:44:24.715Z,7.03
2019-05-05T00:46:04.654Z,7.02
2019-05-05T00:47:51.930Z,7.01
2019-05-05T00:49:45.691Z,7.01
2019-05-05T00:51:09.300Z,6.97
2019-05-05T00:52:45.808Z,6.95
2019-05-05T00:54:21.321Z,6.94
2019-05-05T00:55:56.832Z,6.94
2019-05-05T00:57:32.344Z,6.93
2019-05-05T00:59:15.238Z,6.94
2019-05-05T01:00:58.407Z,6.93
2019-05-05T01:02:35.884Z,6.92
2019-05-05T01:04:14.496Z,6.90
2019-05-05T01:05:51.751Z,6.89
2019-05-05T01:07:27.267Z,6.88
2019-05-05T01:09:04.428Z,6.88
2019-05-05T01:10:41.559Z,6.88
2019-05-05T01:12:17.147Z,6.87
2019-05-05T01:13:54.568Z,6.86
2019-05-05T01:15:30.433Z,6.86
2019-05-05T01:17:05.932Z,6.87
2019-05-05T01:18:41.496Z,6.87
2019-05-05T01:20:17.564Z,6.87
2019-05-05T01:21:54.405Z,6.87
2019-05-05T01:23:30.118Z,6.88
2019-05-05T01:25:08.278Z,6.87
2019-05-05T01:26:44.619Z,6.87
2019-05-05T01:28:20.595Z,6.87
2019-05-05T01:29:56.212Z,6.87
2019-05-05T01:31:31.733Z,6.87
2019-05-05T01:33:19.171Z,6.87
2019-05-05T01:34:55.025Z,6.87
2019-05-05T01:36:30.914Z,6.84
2019-05-05T01:38:10.663Z,6.85
2019-05-05T01:39:54.271Z,6.84
2019-05-05T01:41:34.959Z,6.84
2019-05-05T01:43:10.490Z,6.82
2019-05-05T01:44:46.603Z,6.81
2019-05-05T01:46:22.113Z,6.81
2019-05-05T01:47:57.647Z,6.82
2019-05-05T01:49:34.520Z,6.82
2019-05-05T01:51:10.194Z,6.82
2019-05-05T01:52:46.331Z,6.83
2019-05-05T01:54:21.857Z,6.83
2019-05-05T01:55:58.670Z,6.82
2019-05-05T01:57:34.542Z,6.83
2019-05-05T01:59:10.242Z,6.83
2019-05-05T02:00:46.513Z,6.82
2019-05-05T02:02:22.024Z,6.84
2019-05-05T02:03:57.638Z,6.85
2019-05-05T02:05:34.838Z,6.84
2019-05-05T02:07:10.520Z,6.85
2019-05-05T02:08:46.586Z,6.84
2019-05-05T02:10:25.275Z,6.85
2019-05-05T02:12:00.281Z,6.85
2019-05-05T02:13:35.788Z,6.84
2019-05-05T02:15:12.156Z,6.84
2019-05-05T02:16:47.670Z,6.86
2019-05-05T02:18:25.222Z,6.85
2019-05-05T02:20:00.396Z,6.85
2019-05-05T02:21:35.933Z,6.85
2019-05-05T02:23:15.072Z,6.86
2019-05-05T02:24:50.336Z,6.86
2019-05-05T02:26:25.845Z,6.86
2019-05-05T02:28:01.354Z,6.86
2019-05-05T02:29:38.498Z,6.86
2019-05-05T02:31:16.620Z,6.87
2019-05-05T02:32:56.998Z,6.85
2019-05-05T02:34:35.913Z,6.85
2019-05-05T02:36:11.362Z,6.85
2019-05-05T02:37:47.771Z,6.84
2019-05-05T02:39:24.262Z,6.85
2019-05-05T02:41:00.312Z,6.85
2019-05-05T02:42:35.840Z,6.86
2019-05-05T02:44:15.216Z,6.86
2019-05-05T02:46:19.140Z,6.86
2019-05-05T02:48:00.663Z,6.86
2019-05-05T02:49:36.728Z,6.81
2019-05-05T02:51:15.074Z,6.79
2019-05-05T02:52:50.959Z,6.79
2019-05-05T02:54:26.708Z,6.78
2019-05-05T02:56:06.430Z,6.81
2019-05-05T02:57:43.941Z,6.79
2019-05-05T02:59:24.774Z,6.78
2019-05-05T03:01:05.857Z,6.79
2019-05-05T03:02:43.306Z,6.78
2019-05-05T03:04:20.074Z,6.79
2019-05-05T03:05:56.294Z,6.78
2019-05-05T03:07:34.415Z,6.77
2019-05-05T03:09:09.937Z,6.75
2019-05-05T03:10:45.788Z,6.75
2019-05-05T03:12:24.311Z,6.73
2019-05-05T03:14:03.957Z,6.73
2019-05-05T03:15:51.753Z,6.71
2019-05-05T03:17:27.926Z,6.69
2019-05-05T03:19:03.647Z,6.67
2019-05-05T03:20:39.309Z,6.65
2019-05-05T03:22:16.462Z,6.64
2019-05-05T03:23:52.043Z,6.63
2019-05-05T03:25:27.620Z,6.61
2019-05-05T03:27:03.899Z,6.60
2019-05-05T03:28:41.339Z,6.60
2019-05-05T03:30:17.093Z,6.60
2019-05-05T03:31:55.926Z,6.59
2019-05-05T03:33:30.147Z,6.59
2019-05-05T03:35:06.187Z,6.58
2019-05-05T03:36:44.134Z,6.58
2019-05-05T03:38:20.078Z,6.59
2019-05-05T03:39:57.398Z,6.58
2019-05-05T03:41:40.782Z,6.59
2019-05-05T03:43:26.495Z,6.59
2019-05-05T03:45:07.654Z,6.58
2019-05-05T03:46:43.866Z,6.57
2019-05-05T03:48:21.517Z,6.56
2019-05-05T03:49:57.480Z,6.56
2019-05-05T03:51:34.484Z,6.57
2019-05-05T03:53:10.210Z,6.58
2019-05-05T03:54:45.864Z,6.59
2019-05-05T03:56:21.699Z,6.60
2019-05-05T03:57:57.222Z,6.62
2019-05-05T03:59:33.561Z,6.63
2019-05-05T04:01:38.530Z,6.66
2019-05-05T04:03:14.685Z,6.67
2019-05-05T04:04:55.035Z,6.62
2019-05-05T04:06:38.246Z,6.64
2019-05-05T04:08:14.508Z,6.66
2019-05-05T04:09:50.329Z,6.65
2019-05-05T04:11:25.905Z,6.68
2019-05-05T04:13:04.502Z,6.69
2019-05-05T04:14:40.487Z,6.72
2019-05-05T04:16:17.641Z,6.74
2019-05-05T04:17:55.385Z,6.77
2019-05-05T04:19:34.275Z,6.79
2019-05-05T04:21:09.953Z,6.83
2019-05-05T04:22:45.469Z,6.86
2019-05-05T04:24:20.981Z,6.89
2019-05-05T04:25:56.748Z,6.92
2019-05-05T04:27:34.268Z,6.96
2019-05-05T04:29:09.935Z,7.00
2019-05-05T04:30:45.484Z,7.03
2019-05-05T04:32:20.997Z,7.07
2019-05-05T04:33:56.510Z,7.10
2019-05-05T04:35:33.957Z,7.16
2019-05-05T04:37:09.637Z,7.21
2019-05-05T04:38:45.156Z,7.25
2019-05-05T04:40:20.744Z,7.31
2019-05-05T04:41:56.513Z,7.36
2019-05-05T04:43:33.799Z,7.41
2019-05-05T04:45:10.234Z,7.45
2019-05-05T04:46:47.388Z,7.50
2019-05-05T04:48:24.561Z,7.54
2019-05-05T04:50:07.560Z,7.58
2019-05-05T04:51:49.446Z,7.64
2019-05-05T04:53:24.191Z,7.67
2019-05-05T04:54:59.741Z,7.71
2019-05-05T04:56:35.425Z,7.76
2019-05-05T04:58:10.949Z,7.82
2019-05-05T04:59:47.749Z,7.88
2019-05-05T05:01:24.167Z,7.94
2019-05-05T05:03:01.609Z,7.98
2019-05-05T05:04:38.737Z,8.03
2019-05-05T05:06:15.889Z,8.06
2019-05-05T05:07:51.404Z,8.09
2019-05-05T05:09:26.983Z,8.11
2019-05-05T05:11:03.635Z,8.16
2019-05-05T05:12:40.307Z,8.21
2019-05-05T05:14:15.835Z,8.25
2019-05-05T05:15:51.332Z,8.31
2019-05-05T05:17:28.758Z,8.35
2019-05-05T05:19:04.637Z,8.39
2019-05-05T05:20:40.172Z,8.43
2019-05-05T05:22:16.749Z,8.48
2019-05-05T05:23:53.642Z,8.51
2019-05-05T05:25:29.269Z,8.55
2019-05-05T05:27:05.160Z,8.60
2019-05-05T05:28:40.786Z,8.67
2019-05-05T05:30:16.373Z,8.75
2019-05-05T05:31:53.494Z,8.85
2019-05-05T05:33:29.130Z,8.99
2019-05-05T05:35:06.452Z,9.13
2019-05-05T05:36:41.950Z,9.30
2019-05-05T05:38:19.349Z,9.48
2019-05-05T05:40:03.941Z,9.66
2019-05-05T05:41:43.604Z,9.82
2019-05-05T05:43:36.039Z,9.99
2019-05-05T05:45:14.650Z,10.18
2019-05-05T05:46:58.004Z,10.38
2019-05-05T05:48:43.350Z,10.60
2019-05-05T05:50:24.431Z,10.80
2019-05-05T05:52:12.533Z,10.97
2019-05-05T05:53:37.610Z,11.11
2019-05-05T05:55:14.556Z,11.25
2019-05-05T05:56:53.821Z,11.41
2019-05-05T05:58:29.472Z,11.58
2019-05-05T06:00:08.260Z,11.74
2019-05-05T06:01:45.050Z,11.92
2019-05-05T06:03:20.565Z,12.13
2019-05-05T06:04:56.084Z,12.32
2019-05-05T06:06:31.643Z,12.53
2019-05-05T06:08:07.238Z,12.72
2019-05-05T06:09:43.762Z,12.89
2019-05-05T06:11:19.467Z,13.05
2019-05-05T06:12:54.993Z,13.19
2019-05-05T06:14:30.523Z,13.32
2019-05-05T06:16:06.047Z,13.45
2019-05-05T06:17:43.522Z,13.56
2019-05-05T06:19:19.219Z,13.67
2019-05-05T06:20:54.761Z,13.78
2019-05-05T06:22:31.610Z,13.89
2019-05-05T06:24:07.892Z,14.02
2019-05-05T06:25:44.543Z,14.15
2019-05-05T06:27:20.521Z,14.30
2019-05-05T06:28:56.098Z,14.42
2019-05-05T06:30:33.493Z,14.56
2019-05-05T06:32:08.857Z,14.67
2019-05-05T06:33:44.375Z,14.80
2019-05-05T06:35:19.956Z,14.93
2019-05-05T06:36:55.788Z,15.03
2019-05-05T06:38:31.315Z,15.17
2019-05-05T06:40:09.945Z,15.32
2019-05-05T06:41:59.288Z,15.49
2019-05-05T06:43:54.322Z,15.63
2019-05-05T06:45:31.668Z,15.74
2019-05-05T06:47:14.900Z,15.83
2019-05-05T06:48:50.427Z,15.96
2019-05-05T06:50:26.343Z,16.08
2019-05-05T06:52:03.857Z,16.20
2019-05-05T06:53:39.417Z,16.34
2019-05-05T06:55:14.927Z,16.49
2019-05-05T06:56:50.461Z,16.66
2019-05-05T06:58:25.968Z,16.82
2019-05-05T07:00:03.504Z,16.96
2019-05-05T07:01:38.990Z,17.12
2019-05-05T07:03:14.511Z,17.24
2019-05-05T07:04:50.029Z,17.36
2019-05-05T07:06:25.571Z,17.49
2019-05-05T07:08:01.438Z,17.60
2019-05-05T07:09:36.949Z,17.74
2019-05-05T07:11:14.337Z,17.88
2019-05-05T07:12:50.005Z,18.00
2019-05-05T07:14:25.523Z,18.15
2019-05-05T07:16:01.656Z,18.29
2019-05-05T07:17:37.548Z,18.42
2019-05-05T07:19:14.708Z,18.55
2019-05-05T07:20:50.790Z,18.68
2019-05-05T07:22:26.313Z,18.80
2019-05-05T07:24:03.844Z,18.96
2019-05-05T07:25:42.963Z,19.09
2019-05-05T07:27:16.397Z,19.21
2019-05-05T07:28:54.058Z,19.30
2019-05-05T07:30:29.303Z,19.40
2019-05-05T07:32:04.851Z,19.49
2019-05-05T07:33:40.372Z,19.55
2019-05-05T07:35:17.685Z,19.63
2019-05-05T07:36:54.808Z,19.71
2019-05-05T07:38:30.496Z,19.77
2019-05-05T07:40:08.330Z,19.81
2019-05-05T07:41:44.748Z,19.82
2019-05-05T07:43:20.867Z,19.77
2019-05-05T07:44:56.637Z,19.72
2019-05-05T07:46:34.639Z,19.71
2019-05-05T07:48:10.413Z,19.66
2019-05-05T07:49:46.329Z,19.59
2019-05-05T07:51:24.123Z,19.51
2019-05-05T07:53:13.867Z,19.49
2019-05-05T07:54:39.528Z,19.49
2019-05-05T07:56:15.080Z,19.51
2019-05-05T07:57:50.951Z,19.57
2019-05-05T07:59:26.472Z,19.58
2019-05-05T08:01:04.960Z,19.56
2019-05-05T08:02:40.474Z,19.60
2019-05-05T08:04:16.009Z,19.67
2019-05-05T08:05:51.580Z,19.74
2019-05-05T08:07:27.310Z,19.80
2019-05-05T08:09:05.856Z,19.82
2019-05-05T08:10:43.556Z,19.76
2019-05-05T08:12:18.687Z,19.74
2019-05-05T08:13:54.804Z,19.75
2019-05-05T08:15:34.347Z,19.86
2019-05-05T08:17:11.602Z,19.97
2019-05-05T08:19:04.860Z,20.07
2019-05-05T08:20:44.167Z,20.11
2019-05-05T08:22:23.645Z,20.14
2019-05-05T08:24:04.544Z,20.21
2019-05-05T08:25:40.271Z,20.30
2019-05-05T08:27:20.818Z,20.36
2019-05-05T08:28:56.552Z,20.36
2019-05-05T08:30:33.898Z,20.27
2019-05-05T08:32:32.617Z,20.16
2019-05-05T08:34:06.696Z,20.04
2019-05-05T08:35:42.201Z,19.86
2019-05-05T08:37:17.729Z,19.78
2019-05-05T08:38:54.605Z,19.69
2019-05-05T08:40:30.193Z,19.60
2019-05-05T08:42:05.972Z,19.52
2019-05-05T08:43:41.512Z,19.51
2019-05-05T08:45:17.490Z,19.50
2019-05-05T08:46:53.753Z,19.48
2019-05-05T08:48:29.475Z,19.47
2019-05-05T08:50:07.609Z,19.52
2019-05-05T08:51:44.271Z,19.56
2019-05-05T08:53:24.413Z,19.69
2019-05-05T08:55:00.796Z,19.91
2019-05-05T08:56:36.987Z,20.19
2019-05-05T08:58:14.621Z,20.52
2019-05-05T08:59:49.844Z,20.77
2019-05-05T09:01:25.970Z,20.82
2019-05-05T09:03:03.561Z,20.74
2019-05-05T09:04:38.713Z,20.61
2019-05-05T09:06:14.341Z,20.46
2019-05-05T09:07:50.004Z,20.30
2019-05-05T09:09:25.533Z,20.14
2019-05-05T09:11:01.329Z,20.02
2019-05-05T09:12:38.005Z,19.92
2019-05-05T09:14:14.986Z,19.85
2019-05-05T09:15:50.664Z,19.71
2019-05-05T09:17:28.101Z,19.53
2019-05-05T09:19:07.717Z,19.34
2019-05-05T09:20:44.583Z,19.13
2019-05-05T09:22:20.350Z,18.93
2019-05-05T09:24:05.237Z,18.81
2019-05-05T09:25:41.843Z,18.87
2019-05-05T09:27:17.134Z,18.99
2019-05-05T09:28:54.400Z,18.98
2019-05-05T09:30:40.532Z,18.93
2019-05-05T09:32:16.068Z,18.90
2019-05-05T09:33:53.498Z,19.08
2019-05-05T09:35:28.817Z,19.33
2019-05-05T09:37:05.403Z,19.40
2019-05-05T09:38:40.992Z,19.32
2019-05-05T09:40:21.493Z,19.15
2019-05-05T09:41:57.044Z,19.08
2019-05-05T09:43:34.503Z,19.24
2019-05-05T09:45:11.002Z,19.52
2019-05-05T09:46:46.524Z,19.89
2019-05-05T09:48:24.132Z,20.26
2019-05-05T09:49:59.446Z,20.57
2019-05-05T09:51:35.091Z,20.59
2019-05-05T09:53:10.621Z,20.50
2019-05-05T09:54:46.161Z,20.42
2019-05-05T09:56:23.625Z,20.27
2019-05-05T09:57:58.911Z,20.10
2019-05-05T09:59:34.823Z,19.91
2019-05-05T10:01:10.761Z,19.74
2019-05-05T10:02:46.354Z,19.58
2019-05-05T10:04:24.310Z,19.42
2019-05-05T10:05:59.944Z,19.30
2019-05-05T10:07:35.455Z,19.21
2019-05-05T10:09:15.535Z,19.22
2019-05-05T10:10:51.694Z,19.54
2019-05-05T10:12:29.064Z,19.75
2019-05-05T10:14:10.156Z,20.02
2019-05-05T10:15:46.094Z,20.27
2019-05-05T10:17:25.136Z,20.29
2019-05-05T10:19:01.549Z,20.19
2019-05-05T10:20:37.477Z,20.00
2019-05-05T10:22:14.798Z,19.79
2019-05-05T10:23:54.087Z,19.58
2019-05-05T10:25:37.816Z,19.37
2019-05-05T10:27:15.639Z,19.16
2019-05-05T10:28:53.608Z,19.07
2019-05-05T10:30:28.873Z,19.39
2019-05-05T10:32:04.749Z,19.93
2019-05-05T10:33:41.993Z,20.58
2019-05-05T10:35:17.642Z,21.18
2019-05-05T10:36:53.630Z,21.41
2019-05-05T10:38:29.511Z,21.37
2019-05-05T10:40:09.508Z,21.20
2019-05-05T10:41:45.486Z,20.97
2019-05-05T10:43:21.010Z,20.65
2019-05-05T10:44:56.529Z,20.39
2019-05-05T10:46:33.989Z,20.15
2019-05-05T10:48:10.234Z,20.12
2019-05-05T10:49:47.088Z,20.47
2019-05-05T10:51:23.771Z,21.02
2019-05-05T10:52:59.337Z,21.64
2019-05-05T10:54:44.173Z,22.12
2019-05-05T10:56:13.651Z,22.23
2019-05-05T10:57:49.389Z,22.07
2019-05-05T10:59:24.896Z,21.80
2019-05-05T11:01:01.422Z,21.48
2019-05-05T11:02:37.326Z,21.21
2019-05-05T11:04:13.628Z,20.98
2019-05-05T11:05:50.284Z,20.79
2019-05-05T11:07:26.063Z,20.63
2019-05-05T11:09:01.951Z,20.52
2019-05-05T11:10:38.891Z,20.46
2019-05-05T11:12:14.511Z,20.45
2019-05-05T11:13:50.028Z,20.46
2019-05-05T11:15:25.560Z,20.52
2019-05-05T11:17:03.923Z,20.59
2019-05-05T11:18:38.923Z,20.66
2019-05-05T11:20:14.745Z,20.77
2019-05-05T11:21:50.298Z,20.84
2019-05-05T11:23:25.826Z,20.93
2019-05-05T11:25:01.490Z,21.07
2019-05-05T11:26:36.959Z,21.26
2019-05-05T11:28:12.513Z,21.42
2019-05-05T11:30:05.616Z,21.55
2019-05-05T11:31:41.224Z,21.63
2019-05-05T11:33:21.110Z,21.67
2019-05-05T11:34:56.689Z,21.71
2019-05-05T11:36:34.614Z,21.76
2019-05-05T11:38:10.223Z,21.79
2019-05-05T11:39:45.749Z,21.80
2019-05-05T11:41:21.280Z,21.77
2019-05-05T11:42:56.885Z,21.73
2019-05-05T11:44:33.551Z,21.69
2019-05-05T11:46:09.508Z,21.69
2019-05-05T11:47:45.032Z,21.70
2019-05-05T11:49:20.570Z,21.76
2019-05-05T11:50:56.086Z,21.87
2019-05-05T11:52:33.618Z,21.97
2019-05-05T11:54:09.254Z,22.09
2019-05-05T11:55:44.817Z,22.18
2019-05-05T11:57:20.417Z,22.28
2019-05-05T11:58:55.955Z,22.36
2019-05-05T12:00:32.001Z,22.39
2019-05-05T12:02:08.118Z,22.36
2019-05-05T12:03:44.475Z,22.28
2019-05-05T12:05:20.890Z,22.17
2019-05-05T12:06:56.417Z,22.04
2019-05-05T12:08:31.964Z,21.89
2019-05-05T12:10:09.269Z,21.72
2019-05-05T12:11:45.773Z,21.55
2019-05-05T12:13:22.702Z,21.34
2019-05-05T12:14:58.233Z,21.08
2019-05-05T12:16:34.734Z,20.85
2019-05-05T12:18:10.384Z,20.66
2019-05-05T12:19:48.432Z,20.52
2019-05-05T12:21:24.269Z,20.47
2019-05-05T12:22:59.881Z,20.39
2019-05-05T12:24:37.065Z,20.26
2019-05-05T12:26:13.731Z,20.11
2019-05-05T12:27:59.925Z,20.04
2019-05-05T12:29:36.363Z,20.14
2019-05-05T12:31:25.812Z,20.44
2019-05-05T12:33:01.595Z,20.62
2019-05-05T12:34:37.122Z,20.61
2019-05-05T12:36:14.907Z,20.53
2019-05-05T12:37:51.496Z,20.42
2019-05-05T12:39:27.282Z,20.28
2019-05-05T12:41:04.308Z,20.18
2019-05-05T12:42:39.999Z,20.07
2019-05-05T12:44:17.206Z,19.94
2019-05-05T12:45:55.172Z,19.91
2019-05-05T12:47:34.984Z,20.09
2019-05-05T12:49:13.902Z,20.39
2019-05-05T12:50:49.575Z,20.77
2019-05-05T12:52:25.102Z,21.09
2019-05-05T12:54:00.633Z,21.38
2019-05-05T12:55:41.376Z,21.73
2019-05-05T12:57:13.731Z,22.08
2019-05-05T12:58:49.295Z,22.35
2019-05-05T13:00:25.675Z,22.43
2019-05-05T13:02:01.247Z,22.40
2019-05-05T13:03:37.017Z,22.32
2019-05-05T13:05:14.486Z,22.20
2019-05-05T13:06:51.108Z,22.07
2019-05-05T13:08:28.295Z,21.99
2019-05-05T13:10:06.068Z,21.90
2019-05-05T13:11:43.486Z,21.79
2019-05-05T13:13:20.044Z,21.69
2019-05-05T13:14:55.564Z,21.61
2019-05-05T13:16:31.077Z,21.48
2019-05-05T13:18:06.688Z,21.33
2019-05-05T13:19:47.557Z,21.20
2019-05-05T13:21:41.067Z,21.03
2019-05-05T13:23:24.051Z,20.86
2019-05-05T13:25:01.500Z,20.64
2019-05-05T13:26:45.529Z,20.46
2019-05-05T13:28:21.034Z,20.29
2019-05-05T13:29:56.578Z,20.07
2019-05-05T13:31:33.777Z,19.91
2019-05-05T13:33:09.408Z,19.76
2019-05-05T13:34:45.224Z,19.65
2019-05-05T13:36:20.734Z,19.57
2019-05-05T13:37:56.317Z,19.50
2019-05-05T13:39:33.911Z,19.50
2019-05-05T13:41:09.193Z,19.47
2019-05-05T13:42:44.716Z,19.45
2019-05-05T13:44:24.125Z,19.41
2019-05-05T13:46:00.917Z,19.36
2019-05-05T13:47:36.403Z,19.30
2019-05-05T13:49:19.274Z,19.31
2019-05-05T13:50:57.304Z,19.39
2019-05-05T13:52:33.713Z,19.40
2019-05-05T13:54:10.511Z,19.50
2019-05-05T13:55:46.285Z,19.64
2019-05-05T13:57:21.803Z,19.82
2019-05-05T13:58:57.797Z,19.98
2019-05-05T14:00:33.865Z,20.06
2019-05-05T14:02:09.466Z,20.09
2019-05-05T14:03:45.253Z,20.12
2019-05-05T14:05:20.782Z,20.15
2019-05-05T14:06:57.072Z,20.12
2019-05-05T14:08:36.057Z,20.03
2019-05-05T14:10:09.947Z,19.93
2019-05-05T14:11:45.529Z,19.80
2019-05-05T14:13:21.054Z,19.67
2019-05-05T14:14:57.549Z,19.54
2019-05-05T14:16:34.055Z,19.37
2019-05-05T14:18:10.699Z,19.18
2019-05-05T14:19:46.251Z,18.97
2019-05-05T14:21:21.763Z,18.77
2019-05-05T14:22:58.419Z,18.57
2019-05-05T14:24:36.255Z,18.38
2019-05-05T14:26:22.883Z,18.17
2019-05-05T14:27:49.232Z,17.97
2019-05-05T14:29:43.036Z,17.79
2019-05-05T14:31:25.716Z,17.58
2019-05-05T14:33:03.653Z,17.32
2019-05-05T14:34:46.273Z,17.11
2019-05-05T14:36:28.662Z,16.94
2019-05-05T14:38:23.581Z,16.76
2019-05-05T14:39:59.185Z,16.63
2019-05-05T14:41:35.234Z,16.46
2019-05-05T14:43:10.819Z,16.34
2019-05-05T14:44:46.596Z,16.26
2019-05-05T14:46:23.514Z,16.17
2019-05-05T14:47:59.393Z,16.07
2019-05-05T14:49:34.914Z,16.01
2019-05-05T14:51:10.507Z,15.97
2019-05-05T14:52:46.031Z,15.95
2019-05-05T14:54:21.574Z,15.93
2019-05-05T14:55:57.116Z,15.93
2019-05-05T14:57:33.643Z,15.94
2019-05-05T14:59:09.244Z,15.95
2019-05-05T15:00:44.789Z,15.98
2019-05-05T15:02:20.476Z,16.02
2019-05-05T15:03:56.248Z,16.09
2019-05-05T15:05:36.323Z,16.14
2019-05-05T15:07:11.658Z,16.23
2019-05-05T15:08:48.822Z,16.30
2019-05-05T15:10:43.952Z,16.40
2019-05-05T15:12:39.017Z,16.47
2019-05-05T15:14:14.550Z,16.48
2019-05-05T15:15:50.078Z,16.50
2019-05-05T15:17:25.659Z,16.52
2019-05-05T15:19:03.758Z,16.53
2019-05-05T15:20:38.665Z,16.52
2019-05-05T15:22:15.148Z,16.53
2019-05-05T15:23:50.772Z,16.54
2019-05-05T15:25:26.529Z,16.54
2019-05-05T15:27:02.104Z,16.55
2019-05-05T15:28:37.625Z,16.57
2019-05-05T15:30:13.470Z,16.58
2019-05-05T15:31:49.037Z,16.61
2019-05-05T15:33:24.556Z,16.64
2019-05-05T15:35:00.085Z,16.68
2019-05-05T15:36:35.595Z,16.72
2019-05-05T15:38:11.399Z,16.77
2019-05-05T15:39:47.098Z,16.80
2019-05-05T15:41:23.655Z,16.82
2019-05-05T15:42:59.223Z,16.85
2019-05-05T15:44:35.696Z,16.85
2019-05-05T15:46:11.218Z,16.84
2019-05-05T15:47:46.782Z,16.86
2019-05-05T15:49:22.297Z,16.89
2019-05-05T15:50:57.812Z,16.88
2019-05-05T15:52:35.102Z,16.91
2019-05-05T15:54:10.570Z,16.92
2019-05-05T15:55:46.580Z,16.94
2019-05-05T15:57:23.984Z,16.95
2019-05-05T15:58:59.308Z,16.94
2019-05-05T16:00:34.869Z,16.89
2019-05-05T16:02:10.404Z,16.83
2019-05-05T16:03:45.982Z,16.76
2019-05-05T16:05:21.570Z,16.67
2019-05-05T16:06:57.162Z,16.58
2019-05-05T16:08:34.025Z,16.51
2019-05-05T16:10:10.789Z,16.42
2019-05-05T16:11:46.824Z,16.35
2019-05-05T16:13:22.452Z,16.31
2019-05-05T16:15:05.030Z,16.27
2019-05-05T16:16:45.180Z,16.25
2019-05-05T16:18:31.666Z,16.20
2019-05-05T16:20:15.283Z,16.15
2019-05-05T16:21:54.259Z,16.07
2019-05-05T16:23:35.956Z,16.02
2019-05-05T16:25:14.032Z,15.98
2019-05-05T16:26:50.849Z,15.93
2019-05-05T16:28:26.357Z,15.90
2019-05-05T16:30:05.632Z,15.86
2019-05-05T16:31:39.152Z,15.84
2019-05-05T16:33:14.684Z,15.82
2019-05-05T16:34:50.199Z,15.78
2019-05-05T16:36:25.727Z,15.74
2019-05-05T16:38:01.251Z,15.71
2019-05-05T16:39:36.765Z,15.68
2019-05-05T16:41:15.082Z,15.64
2019-05-05T16:42:49.837Z,15.63
2019-05-05T16:44:25.423Z,15.59
2019-05-05T16:46:00.984Z,15.55
2019-05-05T16:47:36.919Z,15.53
2019-05-05T16:49:14.029Z,15.50
2019-05-05T16:50:49.556Z,15.46
2019-05-05T16:52:26.980Z,15.44
2019-05-05T16:54:04.686Z,15.42
2019-05-05T16:55:48.189Z,15.37
2019-05-05T16:57:33.755Z,15.35
2019-05-05T16:59:01.886Z,15.33
2019-05-05T17:00:38.387Z,15.31
2019-05-05T17:02:14.007Z,15.30
2019-05-05T17:03:49.792Z,15.29
2019-05-05T17:05:25.313Z,15.27
2019-05-05T17:07:00.859Z,15.27
2019-05-05T17:08:36.359Z,15.27
2019-05-05T17:10:13.843Z,15.27
2019-05-05T17:11:51.141Z,15.24
2019-05-05T17:13:31.272Z,15.25
2019-05-05T17:15:07.201Z,15.24
2019-05-05T17:16:50.067Z,15.22
2019-05-05T17:18:35.225Z,15.22
2019-05-05T17:20:08.220Z,15.20
2019-05-05T17:21:53.612Z,15.19
2019-05-05T17:23:29.429Z,15.18
2019-05-05T17:25:07.560Z,15.16
2019-05-05T17:26:43.900Z,15.16
2019-05-05T17:28:19.633Z,15.16
2019-05-05T17:29:55.154Z,15.15
2019-05-05T17:31:30.682Z,15.16
2019-05-05T17:33:06.213Z,15.15
2019-05-05T17:34:41.723Z,15.15
2019-05-05T17:36:17.514Z,15.13
2019-05-05T17:37:53.841Z,15.13
2019-05-05T17:39:31.382Z,15.13
2019-05-05T17:41:10.988Z,15.14
2019-05-05T17:42:48.265Z,15.14
2019-05-05T17:44:33.578Z,15.14
2019-05-05T17:46:24.126Z,15.13
2019-05-05T17:48:04.445Z,15.10
2019-05-05T17:49:54.214Z,15.10
2019-05-05T17:51:34.241Z,15.10
2019-05-05T17:53:11.419Z,15.08
2019-05-05T17:54:48.588Z,15.08
2019-05-05T17:56:24.371Z,15.05
2019-05-05T17:58:02.527Z,15.04
2019-05-05T17:59:37.203Z,15.03
2019-05-05T18:01:12.725Z,15.01
2019-05-05T18:02:48.243Z,14.99
2019-05-05T18:04:23.842Z,14.97
2019-05-05T18:06:10.181Z,14.96
2019-05-05T18:07:47.555Z,14.93
2019-05-05T18:09:34.428Z,14.88
2019-05-05T18:11:13.528Z,14.84
2019-05-05T18:13:03.638Z,14.79
2019-05-05T18:14:40.989Z,14.74
2019-05-05T18:16:19.138Z,14.68
2019-05-05T18:17:56.875Z,14.64
2019-05-05T18:19:34.001Z,14.61
2019-05-05T18:21:09.649Z,14.58
2019-05-05T18:22:45.165Z,14.54
2019-05-05T18:24:20.737Z,14.51
2019-05-05T18:25:57.546Z,14.48
2019-05-05T18:27:34.463Z,14.45
2019-05-05T18:29:10.462Z,14.41
2019-05-05T18:30:45.976Z,14.39
2019-05-05T18:32:23.441Z,14.34
2019-05-05T18:34:00.387Z,14.32
2019-05-05T18:35:35.891Z,14.29
2019-05-05T18:37:11.400Z,14.25
2019-05-05T18:38:46.936Z,14.21
2019-05-05T18:40:24.129Z,14.17
2019-05-05T18:42:04.439Z,14.12
2019-05-05T18:43:43.360Z,14.08
2019-05-05T18:45:20.465Z,14.03
2019-05-05T18:47:17.485Z,13.98
2019-05-05T18:48:50.805Z,13.95
2019-05-05T18:50:26.325Z,13.89
2019-05-05T18:52:01.873Z,13.83
2019-05-05T18:53:37.399Z,13.78
2019-05-05T18:55:13.090Z,13.76
2019-05-05T18:56:50.145Z,13.71
2019-05-05T18:58:29.700Z,13.68
2019-05-05T19:00:05.150Z,13.67
2019-05-05T19:01:46.744Z,13.62
2019-05-05T19:03:37.069Z,13.59
2019-05-05T19:05:15.403Z,13.55
2019-05-05T19:06:55.496Z,13.48
2019-05-05T19:08:35.847Z,13.45
2019-05-05T19:10:11.721Z,13.39
2019-05-05T19:11:47.466Z,13.36
2019-05-05T19:13:24.402Z,13.32
2019-05-05T19:15:01.154Z,13.29
2019-05-05T19:16:38.099Z,13.25
2019-05-05T19:18:14.032Z,13.22
2019-05-05T19:19:51.378Z,13.18
2019-05-05T19:21:31.711Z,13.14
2019-05-05T19:23:07.236Z,13.10
2019-05-05T19:24:44.072Z,13.05
2019-05-05T19:26:19.990Z,13.02
2019-05-05T19:27:55.914Z,12.95
2019-05-05T19:29:31.524Z,12.93
2019-05-05T19:31:07.045Z,12.89
2019-05-05T19:32:43.737Z,12.84
2019-05-05T19:34:19.734Z,12.81
2019-05-05T19:35:55.519Z,12.77
2019-05-05T19:37:31.203Z,12.72
2019-05-05T19:39:07.380Z,12.70
2019-05-05T19:40:43.406Z,12.66
2019-05-05T19:42:19.220Z,12.62
2019-05-05T19:43:55.242Z,12.60
2019-05-05T19:45:31.349Z,12.55
2019-05-05T19:47:13.767Z,12.53
2019-05-05T19:48:48.862Z,12.49
2019-05-05T19:50:28.703Z,12.41
2019-05-05T19:52:05.851Z,12.38
2019-05-05T19:53:41.433Z,12.33
2019-05-05T19:55:16.969Z,12.29
2019-05-05T19:56:54.222Z,12.25
2019-05-05T19:58:29.717Z,12.22
2019-05-05T20:00:07.334Z,12.19
2019-05-05T20:01:44.934Z,12.14
2019-05-05T20:03:20.876Z,12.11
2019-05-05T20:04:56.765Z,12.05
2019-05-05T20:06:32.642Z,12.01
2019-05-05T20:08:08.187Z,11.97
2019-05-05T20:09:43.746Z,11.94
2019-05-05T20:11:19.240Z,11.89
2019-05-05T20:12:54.777Z,11.86
2019-05-05T20:14:30.272Z,11.82
2019-05-05T20:16:07.444Z,11.78
2019-05-05T20:17:44.484Z,11.75
2019-05-05T20:19:20.175Z,11.70
2019-05-05T20:21:03.881Z,11.66
2019-05-05T20:22:34.786Z,11.62
2019-05-05T20:24:10.152Z,11.58
2019-05-05T20:25:45.675Z,11.53
2019-05-05T20:27:23.439Z,11.48
2019-05-05T20:29:10.595Z,11.43
2019-05-05T20:30:35.773Z,11.39
2019-05-05T20:32:11.290Z,11.34
2019-05-05T20:33:57.366Z,11.30
2019-05-05T20:35:41.532Z,11.27
2019-05-05T20:37:18.677Z,11.20
2019-05-05T20:38:55.503Z,11.14
2019-05-05T20:40:34.848Z,11.11
2019-05-05T20:42:10.019Z,11.09
2019-05-05T20:43:45.530Z,11.05
2019-05-05T20:45:23.848Z,11.05
2019-05-05T20:46:59.423Z,11.03
2019-05-05T20:48:34.951Z,11.01
2019-05-05T20:50:10.673Z,11.00
2019-05-05T20:51:46.198Z,10.99
2019-05-05T20:53:21.725Z,10.97
2019-05-05T20:54:57.494Z,10.96
2019-05-05T20:56:33.821Z,10.95
2019-05-05T20:58:09.430Z,10.94
2019-05-05T20:59:48.152Z,10.91
2019-05-05T21:01:24.656Z,10.89
2019-05-05T21:02:59.965Z,10.87
2019-05-05T21:04:35.492Z,10.86
2019-05-05T21:06:11.014Z,10.84